Time;durP1;ratioP1;P1;durP2;ratioP2;P2;SDS_P1;SDS_P2;PMS_P1;PMS_P2;Temp;Humidity;BMP_temperature;BMP_pressure;BME280_temperature;BME280_humidity;BME280_pressure;Samples;Min_cycle;Max_cycle;Signal;HPM_P1;HPM_P2
2021/12/31 00:01:02;;;;;;;;;;;;;;;4.32;78.38;93941.22;5110603;28;19945;-53
2021/12/31 00:03:27;;;;;;;;;;;;;;;4.29;78.36;93939.47;5110415;28;20404;-50
2021/12/31 00:05:52;;;;;;;;;;;;;;;4.30;78.02;93946.44;5110761;28;19915;-50
2021/12/31 00:08:18;;;;;;;;;;;;;;;4.23;78.46;93944.19;5111080;28;19932;-49
2021/12/31 00:10:43;;;;;;;;;;;;;;;4.30;78.17;93937.47;5110978;28;19912;-50
2021/12/31 00:13:08;;;;;;;;;;;;;;;4.30;77.39;93930.03;5111171;28;20361;-50
2021/12/31 00:15:34;;;;;;;;;;;;;;;4.20;77.75;93942.44;5111342;28;19907;-53
2021/12/31 00:17:59;;;;;;;;;;;;;;;4.16;78.26;93939.19;5111384;28;19916;-53
2021/12/31 00:20:25;;;;;;;;;;;;;;;4.09;78.39;93936.22;5111406;28;20053;-49
2021/12/31 00:23:06;;;;;;;;;;;;;;;4.01;78.81;93938.69;5110163;28;20428;-50
2021/12/31 00:25:31;;;;;;;;;;;;;;;4.19;77.91;93937.47;5111032;28;19911;-51
2021/12/31 00:27:57;;;;;;;;;;;;;;;4.17;77.47;93937.97;5110975;28;20324;-51
2021/12/31 00:30:22;;;;;;;;;;;;;;;3.74;79.29;93936.66;5111269;28;19912;-49
2021/12/31 00:32:48;;;;;;;;;;;;;;;3.84;79.29;93946.84;5112165;28;19912;-52
2021/12/31 00:35:14;;;;;;;;;;;;;;;3.87;79.65;93956.03;5111787;28;20384;-50
2021/12/31 00:37:39;;;;;;;;;;;;;;;3.84;79.02;93954.28;5112008;28;19912;-49
2021/12/31 00:40:06;;;;;;;;;;;;;;;3.58;79.57;93957.19;5111791;28;19907;-50
2021/12/31 00:42:31;;;;;;;;;;;;;;;3.57;80.72;93961.16;5112091;28;19907;-50
2021/12/31 00:44:56;;;;;;;;;;;;;;;3.48;80.91;93957.91;5112021;28;19913;-51
2021/12/31 00:47:22;;;;;;;;;;;;;;;3.53;81.17;93947.00;5111713;28;19907;-50
2021/12/31 00:49:47;;;;;;;;;;;;;;;3.51;80.78;93948.75;5111623;28;19960;-51
2021/12/31 00:52:13;;;;;;;;;;;;;;;3.32;81.38;93939.47;5111346;28;19962;-51
2021/12/31 00:54:38;;;;;;;;;;;;;;;3.30;82.08;93925.56;5111339;28;19947;-50
2021/12/31 00:57:04;;;;;;;;;;;;;;;3.39;81.87;93925.34;5110952;28;19912;-51
2021/12/31 00:59:31;;;;;;;;;;;;;;;3.40;81.94;93921.41;5111321;28;19912;-51
2021/12/31 01:01:56;;;;;;;;;;;;;;;3.51;81.94;93933.09;5111534;28;19907;-51
2021/12/31 01:04:22;;;;;;;;;;;;;;;3.69;81.50;93942.84;5111473;28;19908;-51
2021/12/31 01:06:48;;;;;;;;;;;;;;;3.74;80.21;93947.56;5111601;28;19912;-53
2021/12/31 01:09:13;;;;;;;;;;;;;;;3.94;79.49;93949.34;5110947;28;20354;-51
2021/12/31 01:11:41;;;;;;;;;;;;;;;3.75;79.75;93944.34;5110715;28;19908;-54
2021/12/31 01:14:15;;;;;;;;;;;;;;;3.62;80.32;93940.56;5111294;28;19915;-51
2021/12/31 01:16:47;;;;;;;;;;;;;;;3.76;79.77;93934.91;5111544;28;19988;-50
2021/12/31 01:21:38;;;;;;;;;;;;;;;3.54;80.64;93918.47;5109821;28;20399;-51
2021/12/31 01:24:03;;;;;;;;;;;;;;;3.47;81.51;93929.09;5109321;28;19907;-51
2021/12/31 01:26:30;;;;;;;;;;;;;;;3.33;82.15;93932.78;5110227;28;19914;-50
2021/12/31 01:28:56;;;;;;;;;;;;;;;3.47;82.17;93929.84;5109693;28;19929;-51
2021/12/31 01:31:21;;;;;;;;;;;;;;;3.51;82.42;93938.56;5110165;28;19907;-48
2021/12/31 01:33:46;;;;;;;;;;;;;;;3.79;81.14;93936.66;5110075;28;19907;-52
2021/12/31 01:36:12;;;;;;;;;;;;;;;3.96;80.35;93927.75;5110045;28;19962;-49
2021/12/31 01:38:37;;;;;;;;;;;;;;;3.98;80.19;93936.19;5112165;28;19916;-49
2021/12/31 01:41:03;;;;;;;;;;;;;;;3.97;80.21;93945.63;5114277;28;19908;-52
2021/12/31 01:43:28;;;;;;;;;;;;;;;4.02;80.54;93944.91;5114613;28;19908;-50
2021/12/31 01:45:55;;;;;;;;;;;;;;;4.14;80.00;93941.69;5114297;28;19919;-49
2021/12/31 01:48:36;;;;;;;;;;;;;;;4.07;79.87;93936.69;5113745;28;19915;-49
2021/12/31 01:51:02;;;;;;;;;;;;;;;4.03;80.79;93936.19;5113134;28;20578;-49
2021/12/31 01:53:28;;;;;;;;;;;;;;;4.08;80.37;93942.91;5112475;28;19955;-49
2021/12/31 01:55:57;;;;;;;;;;;;;;;4.18;80.29;93946.91;5092846;28;19923;-50
2021/12/31 01:58:22;;;;;;;;;;;;;;;4.28;79.79;93957.13;5092824;28;20534;-50
2021/12/31 02:00:48;;;;;;;;;;;;;;;4.33;79.29;93959.09;5093556;28;19912;-49
2021/12/31 02:03:13;;;;;;;;;;;;;;;4.37;79.23;93962.34;5109504;28;19937;-50
2021/12/31 02:05:38;;;;;;;;;;;;;;;4.37;78.48;93959.63;5114655;28;19915;-53
2021/12/31 02:08:04;;;;;;;;;;;;;;;4.30;78.22;93951.91;5114758;28;19936;-54
2021/12/31 02:10:29;;;;;;;;;;;;;;;4.29;78.62;93957.84;5114745;28;19950;-57
2021/12/31 02:12:55;;;;;;;;;;;;;;;4.34;78.64;93957.09;5108893;28;19911;-53
2021/12/31 02:15:20;;;;;;;;;;;;;;;4.32;78.94;93962.31;5104802;28;20396;-53
2021/12/31 02:17:47;;;;;;;;;;;;;;;4.23;79.14;93959.81;5103744;28;19916;-49
2021/12/31 02:20:13;;;;;;;;;;;;;;;4.42;78.57;93952.63;5102925;28;20426;-51
2021/12/31 02:22:40;;;;;;;;;;;;;;;4.32;78.70;93957.63;5099986;28;19927;-50
2021/12/31 02:25:06;;;;;;;;;;;;;;;4.29;78.45;93955.84;5101321;28;19957;-51
2021/12/31 02:27:34;;;;;;;;;;;;;;;4.30;78.86;93957.38;5093938;28;19912;-50
2021/12/31 02:29:59;;;;;;;;;;;;;;;4.15;79.44;93967.03;5075549;28;19968;-55
2021/12/31 02:32:25;;;;;;;;;;;;;;;4.19;79.52;93964.78;5106370;28;19995;-49
2021/12/31 02:34:51;;;;;;;;;;;;;;;4.33;78.79;93972.03;5114469;28;20037;-50
2021/12/31 02:37:17;;;;;;;;;;;;;;;4.30;78.65;93965.56;5112958;28;20389;-51
2021/12/31 02:39:43;;;;;;;;;;;;;;;4.32;79.03;93973.25;5114434;28;19908;-50
2021/12/31 02:42:09;;;;;;;;;;;;;;;4.28;79.05;93973.50;5114345;28;19907;-50
2021/12/31 02:44:34;;;;;;;;;;;;;;;4.31;78.92;93977.97;5113104;28;19907;-48
2021/12/31 02:47:03;;;;;;;;;;;;;;;4.35;79.39;93981.19;5113971;28;19907;-50
2021/12/31 02:49:29;;;;;;;;;;;;;;;4.41;79.13;93970.28;5114005;28;19998;-51
2021/12/31 02:51:59;;;;;;;;;;;;;;;4.44;78.59;93980.25;5104122;28;19919;-49
2021/12/31 02:54:24;;;;;;;;;;;;;;;4.37;79.29;93978.75;5113904;28;20007;-53
2021/12/31 02:56:50;;;;;;;;;;;;;;;4.22;79.78;93991.16;5112613;28;19955;-52
2021/12/31 02:59:15;;;;;;;;;;;;;;;4.31;80.19;93988.91;5113510;28;19935;-53
2021/12/31 03:01:40;;;;;;;;;;;;;;;4.31;80.15;93990.91;5113597;28;19907;-53
2021/12/31 03:04:05;;;;;;;;;;;;;;;4.36;79.64;93995.63;5095552;28;19908;-51
2021/12/31 03:06:31;;;;;;;;;;;;;;;4.29;80.16;93999.59;5095755;28;19907;-53
2021/12/31 03:08:56;;;;;;;;;;;;;;;4.31;79.90;93999.13;5113912;28;19907;-54
2021/12/31 03:11:21;;;;;;;;;;;;;;;4.14;80.47;94011.97;5113473;28;20305;-50
2021/12/31 03:13:52;;;;;;;;;;;;;;;4.23;80.73;93995.34;5095277;28;19911;-51
2021/12/31 03:16:19;;;;;;;;;;;;;;;4.28;80.42;94002.81;5112779;28;20403;-52
2021/12/31 03:18:44;;;;;;;;;;;;;;;4.24;80.14;93997.63;5112118;28;19911;-50
2021/12/31 03:21:20;;;;;;;;;;;;;;;4.27;79.96;94004.06;5111383;28;19929;-50
2021/12/31 03:23:45;;;;;;;;;;;;;;;4.19;80.08;94003.81;5112959;27;19979;-51
2021/12/31 03:26:11;;;;;;;;;;;;;;;4.28;80.31;94016.50;5111920;27;20442;-54
2021/12/31 03:28:36;;;;;;;;;;;;;;;4.23;79.92;94015.25;5112468;28;19915;-56
2021/12/31 03:31:01;;;;;;;;;;;;;;;4.38;79.47;94020.47;5111824;28;19915;-55
2021/12/31 03:33:27;;;;;;;;;;;;;;;4.30;79.87;94017.50;5112499;28;19912;-56
2021/12/31 03:35:52;;;;;;;;;;;;;;;4.17;79.99;94016.47;5112208;28;19934;-55
2021/12/31 03:38:17;;;;;;;;;;;;;;;4.06;80.44;94016.44;5111102;28;19916;-56
2021/12/31 03:40:43;;;;;;;;;;;;;;;4.12;80.25;94007.00;5111290;28;19908;-56
2021/12/31 03:43:08;;;;;;;;;;;;;;;4.06;80.73;94011.72;5111126;28;19912;-56
2021/12/31 03:45:34;;;;;;;;;;;;;;;4.19;80.07;94013.97;5111715;28;19957;-56
2021/12/31 03:47:59;;;;;;;;;;;;;;;4.14;80.01;94023.66;5111231;28;20010;-56
2021/12/31 03:50:24;;;;;;;;;;;;;;;4.08;80.50;94030.34;5111661;28;19915;-55
2021/12/31 03:52:50;;;;;;;;;;;;;;;4.14;80.31;94023.66;5112102;28;19989;-52
2021/12/31 03:55:15;;;;;;;;;;;;;;;4.11;80.31;94035.59;5113005;28;19907;-51
2021/12/31 03:57:40;;;;;;;;;;;;;;;4.16;80.02;94034.13;5112479;28;19919;-51
2021/12/31 04:00:07;;;;;;;;;;;;;;;4.19;79.80;94035.84;5112368;28;20330;-53
2021/12/31 04:02:32;;;;;;;;;;;;;;;4.26;79.88;94032.63;5132177;27;20352;-51
2021/12/31 04:04:57;;;;;;;;;;;;;;;4.28;79.54;94030.91;5133364;27;19946;-51
2021/12/31 04:07:23;;;;;;;;;;;;;;;4.20;79.67;94034.63;5133067;27;20293;-51
2021/12/31 04:09:48;;;;;;;;;;;;;;;4.24;79.76;94035.13;5132951;27;20014;-50
2021/12/31 04:12:13;;;;;;;;;;;;;;;4.20;79.69;94029.88;5132933;27;19907;-49
2021/12/31 04:14:39;;;;;;;;;;;;;;;4.17;79.45;94025.41;5132958;27;19907;-51
2021/12/31 04:17:04;;;;;;;;;;;;;;;4.15;79.98;94027.91;5132718;27;19915;-49
2021/12/31 04:19:30;;;;;;;;;;;;;;;4.23;79.96;94030.88;5129500;27;19907;-49
2021/12/31 04:21:56;;;;;;;;;;;;;;;4.25;79.71;94044.81;5112551;28;20304;-49
2021/12/31 04:24:31;;;;;;;;;;;;;;;4.23;79.50;94039.09;5112432;28;19907;-47
2021/12/31 04:26:56;;;;;;;;;;;;;;;4.31;79.16;94032.63;5112226;28;19912;-48
2021/12/31 04:29:22;;;;;;;;;;;;;;;4.28;79.12;94030.91;5111968;28;19915;-47
2021/12/31 04:31:47;;;;;;;;;;;;;;;4.20;79.50;94020.97;5112312;28;19918;-48
2021/12/31 04:34:12;;;;;;;;;;;;;;;4.28;79.77;94030.91;5111860;28;20426;-47
2021/12/31 04:36:38;;;;;;;;;;;;;;;4.24;79.39;94035.88;5111874;28;19912;-48
2021/12/31 04:39:03;;;;;;;;;;;;;;;4.16;79.55;94036.84;5111776;28;19915;-48
2021/12/31 04:41:28;;;;;;;;;;;;;;;4.26;79.63;94038.84;5111753;28;19908;-49
2021/12/31 04:43:54;;;;;;;;;;;;;;;4.19;79.42;94044.03;5111585;28;19960;-50
2021/12/31 04:46:19;;;;;;;;;;;;;;;4.28;79.53;94030.91;5111679;28;19958;-49
2021/12/31 04:48:44;;;;;;;;;;;;;;;4.24;79.29;94021.47;5111632;28;19915;-50
2021/12/31 04:51:10;;;;;;;;;;;;;;;4.29;78.96;94023.44;5107342;28;19916;-48
2021/12/31 04:53:35;;;;;;;;;;;;;;;4.15;79.06;94027.16;5091058;28;19915;-48
2021/12/31 04:56:00;;;;;;;;;;;;;;;4.18;79.19;94029.63;5091128;28;19919;-49
2021/12/31 04:58:26;;;;;;;;;;;;;;;4.14;79.46;94033.84;5091038;28;19916;-50
2021/12/31 05:00:51;;;;;;;;;;;;;;;4.09;79.94;94024.41;5090873;28;19915;-49
2021/12/31 05:03:17;;;;;;;;;;;;;;;4.12;79.55;94028.88;5091073;28;19950;-52
2021/12/31 05:05:42;;;;;;;;;;;;;;;4.09;79.76;94032.59;5090857;28;19937;-49
2021/12/31 05:08:07;;;;;;;;;;;;;;;3.92;80.09;94028.31;5091245;28;19994;-50
2021/12/31 05:10:33;;;;;;;;;;;;;;;3.87;80.32;94043.47;5091022;28;20304;-53
2021/12/31 05:12:59;;;;;;;;;;;;;;;3.89;80.72;94051.16;5090891;28;19908;-53
2021/12/31 05:15:27;;;;;;;;;;;;;;;3.78;81.11;94057.31;5090856;28;20007;-55
2021/12/31 05:17:53;;;;;;;;;;;;;;;3.72;81.70;94057.31;5090720;28;19916;-53
2021/12/31 05:20:18;;;;;;;;;;;;;;;3.84;81.20;94058.84;5090804;28;19999;-50
2021/12/31 05:22:44;;;;;;;;;;;;;;;3.84;81.45;94060.81;5090861;28;19950;-51
2021/12/31 05:25:09;;;;;;;;;;;;;;;3.91;81.08;94056.88;5091008;28;20007;-53
2021/12/31 05:27:35;;;;;;;;;;;;;;;3.87;81.54;94048.16;5090785;28;20278;-52
2021/12/31 05:30:00;;;;;;;;;;;;;;;3.92;81.25;94056.38;5091015;28;19908;-53
2021/12/31 05:32:25;;;;;;;;;;;;;;;3.94;81.15;94048.47;5090073;28;20010;-51
2021/12/31 05:34:51;;;;;;;;;;;;;;;3.91;81.05;94049.44;5090608;28;19931;-52
2021/12/31 05:37:16;;;;;;;;;;;;;;;3.97;81.28;94043.97;5090700;28;19923;-52
2021/12/31 05:39:43;;;;;;;;;;;;;;;3.99;80.41;94044.97;5090436;28;20010;-55
2021/12/31 05:42:08;;;;;;;;;;;;;;;4.02;80.79;94048.72;5090820;28;20341;-51
2021/12/31 05:44:33;;;;;;;;;;;;;;;3.97;80.67;94052.91;5090934;28;19922;-51
2021/12/31 05:46:59;;;;;;;;;;;;;;;4.00;80.91;94046.47;5090760;28;20281;-50
2021/12/31 05:49:24;;;;;;;;;;;;;;;3.94;81.25;94053.91;5090816;28;19908;-53
2021/12/31 05:51:50;;;;;;;;;;;;;;;3.98;80.99;94045.47;5099554;28;20343;-52
2021/12/31 05:54:15;;;;;;;;;;;;;;;3.96;81.07;94050.69;5079806;28;19994;-50
2021/12/31 05:56:41;;;;;;;;;;;;;;;3.97;81.18;94052.91;5081753;28;20324;-51
2021/12/31 05:59:06;;;;;;;;;;;;;;;4.05;80.38;94048.47;5092720;28;20013;-50
2021/12/31 06:01:31;;;;;;;;;;;;;;;4.05;80.66;94053.22;5102553;28;19911;-56
2021/12/31 06:03:57;;;;;;;;;;;;;;;4.09;80.25;94059.19;5111139;28;19918;-54
2021/12/31 06:06:22;;;;;;;;;;;;;;;4.06;80.21;94054.69;5111053;28;19924;-54
2021/12/31 06:08:47;;;;;;;;;;;;;;;3.95;80.80;94051.91;5096681;28;19916;-55
2021/12/31 06:11:13;;;;;;;;;;;;;;;4.07;80.30;94051.44;5090424;28;19914;-53
2021/12/31 06:13:38;;;;;;;;;;;;;;;4.04;80.42;94057.91;5072669;28;19912;-51
2021/12/31 06:16:06;;;;;;;;;;;;;;;4.07;80.42;94064.38;5088681;28;19911;-57
2021/12/31 06:18:32;;;;;;;;;;;;;;;4.05;79.80;94070.31;5071871;28;20347;-57
2021/12/31 06:20:57;;;;;;;;;;;;;;;3.99;80.36;94072.28;5072440;28;19915;-58
2021/12/31 06:23:22;;;;;;;;;;;;;;;3.88;80.35;94082.44;5090511;28;19982;-58
2021/12/31 06:25:48;;;;;;;;;;;;;;;3.90;80.30;94083.44;5094292;28;19964;-58
2021/12/31 06:28:13;;;;;;;;;;;;;;;3.83;79.92;94087.38;5094207;28;20025;-58
2021/12/31 06:30:38;;;;;;;;;;;;;;;3.91;80.04;94092.38;5094282;28;20408;-57
2021/12/31 06:33:04;;;;;;;;;;;;;;;3.93;80.14;94093.38;5097506;28;20301;-56
2021/12/31 06:35:29;;;;;;;;;;;;;;;3.91;79.79;94093.13;5096714;28;19908;-57
2021/12/31 06:37:56;;;;;;;;;;;;;;;3.93;78.96;94095.38;5094029;28;20313;-52
2021/12/31 06:40:22;;;;;;;;;;;;;;;3.96;79.00;94099.84;5073086;28;19912;-53
2021/12/31 06:42:48;;;;;;;;;;;;;;;3.87;79.45;94094.59;5093400;28;19912;-50
2021/12/31 06:45:13;;;;;;;;;;;;;;;3.84;79.24;94099.06;5093373;28;19969;-53
2021/12/31 06:47:38;;;;;;;;;;;;;;;3.86;79.19;94099.31;5073397;28;19935;-50
2021/12/31 06:50:04;;;;;;;;;;;;;;;3.82;78.65;94098.78;5073406;28;19909;-56
2021/12/31 06:52:29;;;;;;;;;;;;;;;3.77;79.36;94105.72;5103449;28;19915;-53
2021/12/31 06:54:55;;;;;;;;;;;;;;;3.90;79.27;94110.75;5094404;28;19911;-53
2021/12/31 06:57:20;;;;;;;;;;;;;;;3.88;79.09;94107.75;5100930;28;19920;-54
2021/12/31 06:59:45;;;;;;;;;;;;;;;3.89;79.14;94103.06;5104133;28;19915;-54
2021/12/31 07:02:11;;;;;;;;;;;;;;;3.93;79.08;94115.25;5095815;28;19912;-53
2021/12/31 07:04:36;;;;;;;;;;;;;;;4.05;78.72;94122.25;5096033;28;19915;-54
2021/12/31 07:07:02;;;;;;;;;;;;;;;4.17;77.83;94123.78;5102217;28;19907;-55
2021/12/31 07:09:27;;;;;;;;;;;;;;;4.22;78.05;94120.31;5104915;28;19916;-55
2021/12/31 07:11:52;;;;;;;;;;;;;;;4.25;78.01;94127.56;5110205;28;19911;-56
2021/12/31 07:14:18;;;;;;;;;;;;;;;4.18;77.64;94128.00;5113874;28;19998;-54
2021/12/31 07:16:43;;;;;;;;;;;;;;;4.13;77.69;94122.53;5113478;28;20389;-50
2021/12/31 07:19:08;;;;;;;;;;;;;;;4.23;78.11;94124.56;5106691;28;19916;-47
2021/12/31 07:21:34;;;;;;;;;;;;;;;4.28;77.59;94123.09;5094680;28;19912;-47
2021/12/31 07:23:59;;;;;;;;;;;;;;;4.27;77.97;94129.78;5093294;28;20002;-51
2021/12/31 07:26:24;;;;;;;;;;;;;;;4.15;77.51;94136.44;5093220;28;20008;-51
2021/12/31 07:28:50;;;;;;;;;;;;;;;4.24;77.55;94130.78;5093272;28;20347;-52
2021/12/31 07:31:16;;;;;;;;;;;;;;;4.26;77.41;94126.31;5093124;28;19908;-47
2021/12/31 07:33:42;;;;;;;;;;;;;;;4.25;77.37;94138.47;5093019;28;19943;-51
2021/12/31 07:36:07;;;;;;;;;;;;;;;4.26;77.34;94134.53;5095729;28;20389;-50
2021/12/31 07:38:35;;;;;;;;;;;;;;;4.23;77.23;94135.50;5092723;28;19918;-51
2021/12/31 07:41:01;;;;;;;;;;;;;;;4.10;77.69;94132.47;5091805;28;19966;-50
2021/12/31 07:43:26;;;;;;;;;;;;;;;4.25;77.74;94132.25;5091082;28;19908;-52
2021/12/31 07:45:52;;;;;;;;;;;;;;;4.30;77.57;94140.50;5076149;28;20644;-50
2021/12/31 07:48:18;;;;;;;;;;;;;;;4.19;77.75;94136.97;5078647;28;19912;-50
2021/12/31 07:50:43;;;;;;;;;;;;;;;4.10;78.08;94137.16;5089381;28;19912;-46
2021/12/31 07:53:08;;;;;;;;;;;;;;;4.17;77.50;94151.13;5088776;28;20007;-48
2021/12/31 07:55:34;;;;;;;;;;;;;;;4.30;77.47;94154.16;5089407;28;19912;-46
2021/12/31 07:58:00;;;;;;;;;;;;;;;4.40;77.05;94147.22;5088582;28;19920;-45
2021/12/31 08:00:25;;;;;;;;;;;;;;;4.44;76.96;94141.56;5089621;28;19908;-44
2021/12/31 08:02:50;;;;;;;;;;;;;;;4.46;76.98;94131.59;5088794;28;19962;-41
2021/12/31 08:05:16;;;;;;;;;;;;;;;4.58;76.47;94129.66;5088636;28;19912;-40
2021/12/31 08:07:41;;;;;;;;;;;;;;;4.59;76.47;94126.41;5087621;28;19908;-42
2021/12/31 08:10:07;;;;;;;;;;;;;;;4.75;76.20;94129.69;5088024;28;19908;-42
2021/12/31 08:12:33;;;;;;;;;;;;;;;4.80;75.86;94126.22;5088498;28;19912;-48
2021/12/31 08:15:00;;;;;;;;;;;;;;;4.72;75.40;94127.94;5087956;28;19967;-49
2021/12/31 08:17:25;;;;;;;;;;;;;;;4.76;75.61;94131.94;5087729;28;20673;-58
2021/12/31 08:19:50;;;;;;;;;;;;;;;4.81;75.77;94130.44;5087356;28;20654;-57
2021/12/31 08:22:16;;;;;;;;;;;;;;;4.75;75.66;94129.69;5088242;28;20351;-49
2021/12/31 08:24:41;;;;;;;;;;;;;;;4.71;75.24;94120.97;5088593;28;19912;-52
2021/12/31 08:27:06;;;;;;;;;;;;;;;4.83;74.70;94125.97;5088619;28;20034;-56
2021/12/31 08:29:32;;;;;;;;;;;;;;;4.95;74.70;94126.72;5088653;28;19918;-51
2021/12/31 08:31:57;;;;;;;;;;;;;;;4.95;74.25;94129.47;5088647;28;19963;-54
2021/12/31 08:34:22;;;;;;;;;;;;;;;4.98;74.55;94131.22;5088370;28;20587;-56
2021/12/31 08:36:48;;;;;;;;;;;;;;;4.88;73.99;94129.94;5088378;28;19923;-51
2021/12/31 08:39:13;;;;;;;;;;;;;;;4.83;74.49;94127.97;5089199;28;19919;-52
2021/12/31 08:41:38;;;;;;;;;;;;;;;4.85;75.53;94128.94;5089255;28;19911;-52
2021/12/31 08:44:04;;;;;;;;;;;;;;;4.90;74.88;94124.72;5089298;28;19916;-51
2021/12/31 08:46:31;;;;;;;;;;;;;;;4.93;74.95;94127.25;5088933;28;19916;-58
2021/12/31 08:48:56;;;;;;;;;;;;;;;4.89;74.84;94120.50;5088590;28;19912;-57
2021/12/31 08:51:22;;;;;;;;;;;;;;;4.94;74.88;94117.00;5094336;28;19920;-51
2021/12/31 08:53:47;;;;;;;;;;;;;;;5.00;75.29;94117.78;5102592;28;20333;-52
2021/12/31 08:56:13;;;;;;;;;;;;;;;4.86;75.35;94116.03;5097793;28;19985;-50
2021/12/31 08:58:38;;;;;;;;;;;;;;;4.95;75.19;94119.28;5098937;28;19954;-49
2021/12/31 09:01:03;;;;;;;;;;;;;;;4.97;74.73;94103.09;5092747;28;20359;-51
2021/12/31 09:03:29;;;;;;;;;;;;;;;4.91;75.27;94104.34;5108076;28;20624;-56
2021/12/31 09:05:54;;;;;;;;;;;;;;;4.87;75.83;94101.09;5109090;28;19915;-50
2021/12/31 09:08:19;;;;;;;;;;;;;;;4.91;74.72;94096.13;5109036;28;20031;-58
2021/12/31 09:10:45;;;;;;;;;;;;;;;4.91;75.58;94096.88;5109241;28;19919;-51
2021/12/31 09:13:10;;;;;;;;;;;;;;;4.95;75.62;94083.69;5109192;28;19956;-51
2021/12/31 09:15:35;;;;;;;;;;;;;;;5.14;75.07;94087.44;5108914;28;19912;-50
2021/12/31 09:18:01;;;;;;;;;;;;;;;5.23;75.04;94086.44;5106110;28;19916;-52
2021/12/31 09:20:28;;;;;;;;;;;;;;;5.14;74.23;94092.16;5089907;28;19916;-52
2021/12/31 09:22:54;;;;;;;;;;;;;;;5.27;73.97;94092.41;5089110;28;20426;-50
2021/12/31 09:25:19;;;;;;;;;;;;;;;5.46;74.05;94087.91;5088572;28;19908;-44
2021/12/31 09:27:44;;;;;;;;;;;;;;;5.34;73.36;94087.19;5088514;28;20389;-48
2021/12/31 09:30:10;;;;;;;;;;;;;;;5.41;73.32;94085.94;5088453;28;20324;-45
2021/12/31 09:32:35;;;;;;;;;;;;;;;5.62;73.17;94083.66;5088593;28;19964;-44
2021/12/31 09:35:01;;;;;;;;;;;;;;;5.53;72.37;94084.66;5088499;28;19962;-42
2021/12/31 09:37:26;;;;;;;;;;;;;;;5.66;73.06;94081.38;5088268;28;19958;-44
2021/12/31 09:39:51;;;;;;;;;;;;;;;5.79;73.04;94081.59;5088323;28;19943;-46
2021/12/31 09:42:17;;;;;;;;;;;;;;;5.88;72.81;94075.88;5088221;28;19976;-45
2021/12/31 09:44:44;;;;;;;;;;;;;;;6.05;71.32;94073.84;5088134;28;19919;-46
2021/12/31 09:47:13;;;;;;;;;;;;;;;5.83;72.25;94076.63;5088314;28;19912;-44
2021/12/31 09:49:38;;;;;;;;;;;;;;;5.90;72.36;94070.66;5088557;28;19912;-45
2021/12/31 09:52:04;;;;;;;;;;;;;;;6.17;71.13;94064.31;5099326;28;19915;-46
2021/12/31 09:54:29;;;;;;;;;;;;;;;6.49;69.93;94070.91;5108485;28;19915;-46
2021/12/31 09:56:54;;;;;;;;;;;;;;;7.15;68.11;94071.69;5106324;28;19907;-45
2021/12/31 09:59:21;;;;;;;;;;;;;;;7.49;66.84;94070.16;5089725;28;19923;-44
2021/12/31 10:01:48;;;;;;;;;;;;;;;7.56;65.51;94073.06;5092366;28;19915;-46
2021/12/31 10:04:13;;;;;;;;;;;;;;;7.55;65.18;94079.09;5089554;28;19908;-45
2021/12/31 10:06:39;;;;;;;;;;;;;;;7.49;66.00;94079.13;5091611;28;19926;-43
2021/12/31 10:09:04;;;;;;;;;;;;;;;7.37;66.93;94077.75;5090658;28;19911;-43
2021/12/31 10:11:29;;;;;;;;;;;;;;;7.84;65.30;94069.31;5091182;28;19908;-46
2021/12/31 10:13:56;;;;;;;;;;;;;;;7.79;64.81;94062.63;5092070;28;20403;-47
2021/12/31 10:16:30;;;;;;;;;;;;;;;8.13;64.26;94060.22;5092630;28;19920;-49
2021/12/31 10:19:06;;;;;;;;;;;;;;;8.40;63.57;94062.66;5092189;28;20301;-47
2021/12/31 10:21:35;;;;;;;;;;;;;;;8.49;62.78;94063.56;5091830;28;19915;-46
2021/12/31 10:24:04;;;;;;;;;;;;;;;9.35;60.67;94053.78;5091941;28;19918;-47
2021/12/31 10:26:30;;;;;;;;;;;;;;;9.60;58.73;94051.59;5090560;28;20011;-46
2021/12/31 10:28:56;;;;;;;;;;;;;;;9.64;59.49;94054.78;5091594;28;19912;-48
2021/12/31 10:31:22;;;;;;;;;;;;;;;9.84;58.65;94046.66;5091479;28;19955;-47
2021/12/31 10:33:47;;;;;;;;;;;;;;;9.40;58.93;94043.94;5091612;28;19959;-46
2021/12/31 10:36:32;;;;;;;;;;;;;;;9.03;59.99;94039.28;5091462;28;20329;-49
2021/12/31 10:39:03;;;;;;;;;;;;;;;8.81;61.78;94040.34;5091614;28;19912;-44
2021/12/31 10:41:28;;;;;;;;;;;;;;;8.53;63.12;94037.25;5092093;28;20347;-45
2021/12/31 10:43:59;;;;;;;;;;;;;;;8.62;63.10;94030.63;5091646;28;19912;-47
2021/12/31 10:46:24;;;;;;;;;;;;;;;8.90;62.88;94028.22;5091230;28;19912;-46
2021/12/31 10:48:50;;;;;;;;;;;;;;;9.01;61.51;94023.25;5091460;28;19915;-48
2021/12/31 10:51:16;;;;;;;;;;;;;;;8.84;62.35;94017.25;5095742;28;20120;-48
2021/12/31 10:53:50;;;;;;;;;;;;;;;9.04;62.66;94021.47;5111566;28;19908;-46
2021/12/31 10:56:15;;;;;;;;;;;;;;;9.51;60.42;94016.91;5110760;28;19918;-47
2021/12/31 10:58:41;;;;;;;;;;;;;;;9.92;59.55;94011.63;5110937;28;19915;-44
2021/12/31 11:01:08;;;;;;;;;;;;;;;10.22;59.01;94003.03;5111404;28;19918;-47
2021/12/31 11:03:34;;;;;;;;;;;;;;;10.98;56.51;93999.09;5110555;28;19935;-44
2021/12/31 11:06:00;;;;;;;;;;;;;;;11.44;54.64;94006.50;5111663;28;20547;-50
2021/12/31 11:08:25;;;;;;;;;;;;;;;11.82;54.04;93992.25;5093198;28;19911;-48
2021/12/31 11:10:51;;;;;;;;;;;;;;;12.43;52.28;93993.31;5092883;28;19922;-46
2021/12/31 11:13:20;;;;;;;;;;;;;;;12.63;50.85;93987.66;5093122;28;19922;-49
2021/12/31 11:15:47;;;;;;;;;;;;;;;12.15;52.14;93985.78;5111839;28;20438;-43
2021/12/31 11:18:13;;;;;;;;;;;;;;;12.60;51.58;93977.69;5111277;28;19981;-51
2021/12/31 11:20:39;;;;;;;;;;;;;;;13.50;49.04;93974.31;5111196;28;19919;-46
2021/12/31 11:23:04;;;;;;;;;;;;;;;13.85;48.13;93974.66;5109949;28;20611;-47
2021/12/31 11:25:29;;;;;;;;;;;;;;;14.32;46.98;93969.19;5111263;28;20006;-45
2021/12/31 11:27:56;;;;;;;;;;;;;;;14.67;45.67;93967.38;5111177;28;20357;-43
2021/12/31 11:30:24;;;;;;;;;;;;;;;14.64;45.49;93963.69;5110974;28;19940;-44
2021/12/31 11:32:55;;;;;;;;;;;;;;;14.59;45.81;93973.00;5110646;28;19915;-46
2021/12/31 11:35:32;;;;;;;;;;;;;;;14.84;45.18;93975.81;5091007;28;19961;-46
2021/12/31 11:37:58;;;;;;;;;;;;;;;14.80;45.09;93969.91;5089706;28;20415;-46
2021/12/31 11:40:30;;;;;;;;;;;;;;;15.14;44.88;93972.88;5090879;28;19908;-47
2021/12/31 11:43:14;;;;;;;;;;;;;;;15.44;43.61;93974.75;5090539;28;19912;-47
2021/12/31 11:45:39;;;;;;;;;;;;;;;15.64;43.94;93977.16;5090387;28;19911;-51
2021/12/31 11:48:23;;;;;;;;;;;;;;;15.73;43.46;93978.56;5105940;28;20380;-44
2021/12/31 11:51:02;;;;;;;;;;;;;;;15.44;43.48;93983.09;5090653;28;19916;-45
2021/12/31 11:53:27;;;;;;;;;;;;;;;15.19;43.69;93953.19;5091962;28;19959;-45
2021/12/31 11:55:52;;;;;;;;;;;;;;;15.62;43.06;93979.03;5108983;28;20001;-46
2021/12/31 11:58:40;;;;;;;;;;;;;;;15.16;44.64;93973.03;5108217;28;19915;-47
2021/12/31 12:01:24;;;;;;;;;;;;;;;14.99;45.01;93976.47;5108888;28;19961;-45
2021/12/31 12:03:50;;;;;;;;;;;;;;;14.92;45.39;93968.19;5108101;28;20014;-48
2021/12/31 12:06:34;;;;;;;;;;;;;;;14.79;45.24;93971.25;5091296;28;20456;-46
2021/12/31 12:08:59;;;;;;;;;;;;;;;14.57;45.97;93974.84;5108978;28;19915;-45
2021/12/31 12:11:43;;;;;;;;;;;;;;;14.15;47.53;93977.38;5109821;28;19913;-43
2021/12/31 12:14:27;;;;;;;;;;;;;;;13.54;49.18;93980.25;5110213;28;19916;-46
2021/12/31 12:16:57;;;;;;;;;;;;;;;13.05;49.71;93979.84;5101689;28;19984;-46
2021/12/31 12:19:22;;;;;;;;;;;;;;;12.82;51.16;93979.03;5089471;28;20490;-47
2021/12/31 12:21:50;;;;;;;;;;;;;;;12.71;51.36;93976.59;5088881;28;19994;-49
2021/12/31 12:24:16;;;;;;;;;;;;;;;12.55;52.18;93970.28;5105794;28;20286;-48
2021/12/31 12:26:43;;;;;;;;;;;;;;;12.23;53.21;93969.97;5105501;28;19908;-44
2021/12/31 12:29:08;;;;;;;;;;;;;;;12.05;53.56;93968.97;5089698;28;19918;-47
2021/12/31 12:31:38;;;;;;;;;;;;;;;12.06;53.72;93966.94;5089496;28;19912;-51
2021/12/31 12:34:04;;;;;;;;;;;;;;;11.67;54.63;93979.06;5098898;28;20324;-51
2021/12/31 12:36:29;;;;;;;;;;;;;;;11.52;55.20;93969.91;5109987;28;19918;-51
2021/12/31 12:39:00;;;;;;;;;;;;;;;11.49;56.25;93966.19;5107583;28;20289;-46
2021/12/31 12:41:25;;;;;;;;;;;;;;;11.18;56.52;93970.72;5091834;28;20396;-46
2021/12/31 12:43:51;;;;;;;;;;;;;;;10.98;57.45;93967.97;5089015;28;19973;-44
2021/12/31 12:46:18;;;;;;;;;;;;;;;10.86;57.88;93964.72;5088930;28;19912;-47
2021/12/31 12:48:46;;;;;;;;;;;;;;;10.80;58.99;93971.66;5089113;28;20015;-50
2021/12/31 12:51:12;;;;;;;;;;;;;;;10.63;58.95;93972.78;5093025;28;20404;-48
2021/12/31 12:53:40;;;;;;;;;;;;;;;10.60;59.43;93962.06;5109626;28;20308;-46